createdAt,value
2019-03-19T00:00:23.478Z,38.77
2019-03-19T00:02:52.505Z,38.96
2019-03-19T00:05:21.522Z,38.85
2019-03-19T00:07:50.550Z,39.01
2019-03-19T00:10:19.584Z,38.94
2019-03-19T00:12:48.609Z,39.36
2019-03-19T00:15:17.641Z,39.15
2019-03-19T00:17:46.660Z,39.11
2019-03-19T00:20:16.716Z,39.00
2019-03-19T00:22:48.593Z,39.18
2019-03-19T00:25:17.614Z,39.12
2019-03-19T00:27:46.642Z,38.78
2019-03-19T00:30:17.475Z,38.96
2019-03-19T00:32:46.501Z,38.88
2019-03-19T00:35:15.552Z,39.27
2019-03-19T00:37:44.574Z,38.93
2019-03-19T00:40:15.971Z,39.14
2019-03-19T00:42:45.025Z,38.80
2019-03-19T00:45:14.792Z,38.86
2019-03-19T00:47:43.823Z,38.69
2019-03-19T00:50:14.462Z,39.01
2019-03-19T00:52:43.501Z,39.10
2019-03-19T00:55:12.810Z,39.10
2019-03-19T00:57:41.856Z,38.80
2019-03-19T01:00:21.131Z,38.85
2019-03-19T01:02:50.161Z,39.20
2019-03-19T01:05:19.256Z,38.77
2019-03-19T01:07:48.286Z,38.93
2019-03-19T01:10:17.869Z,38.93
2019-03-19T01:12:47.036Z,38.97
2019-03-19T01:15:16.232Z,38.71
2019-03-19T01:17:45.255Z,38.86
2019-03-19T01:20:15.856Z,39.06
2019-03-19T01:22:44.956Z,38.86
2019-03-19T01:25:14.079Z,38.79
2019-03-19T01:27:43.087Z,38.84
2019-03-19T01:30:14.626Z,38.75
2019-03-19T01:32:43.657Z,38.98
2019-03-19T01:35:12.743Z,39.20
2019-03-19T01:37:41.800Z,39.17
2019-03-19T01:40:13.976Z,39.20
2019-03-19T01:42:43.005Z,39.07
2019-03-19T01:45:13.248Z,39.32
2019-03-19T01:47:42.279Z,39.25
2019-03-19T01:50:16.027Z,38.90
2019-03-19T01:52:45.047Z,38.85
2019-03-19T01:55:15.981Z,39.49
2019-03-19T01:57:45.009Z,39.70
2019-03-19T02:00:19.173Z,39.47
2019-03-19T02:02:48.201Z,39.43
2019-03-19T02:05:17.392Z,39.33
2019-03-19T02:07:46.431Z,39.19
2019-03-19T02:10:15.768Z,39.31
2019-03-19T02:12:44.792Z,39.55
2019-03-19T02:15:18.119Z,39.20
2019-03-19T02:19:00.024Z,39.63
2019-03-19T02:21:29.329Z,39.50
2019-03-19T02:23:58.632Z,39.40
2019-03-19T02:26:27.984Z,39.48
2019-03-19T02:28:57.284Z,39.43
2019-03-19T02:31:26.594Z,39.28
2019-03-19T02:33:55.951Z,39.53
2019-03-19T02:36:25.267Z,39.55
2019-03-19T02:38:54.572Z,39.83
2019-03-19T02:41:23.883Z,39.66
2019-03-19T02:43:52.909Z,39.57
2019-03-19T02:46:21.948Z,39.74
2019-03-19T02:48:50.972Z,39.86
2019-03-19T02:51:20.006Z,39.51
2019-03-19T02:53:49.029Z,39.86
2019-03-19T02:56:31.771Z,40.18
2019-03-19T02:58:48.806Z,40.04
2019-03-19T03:01:17.838Z,40.41
2019-03-19T03:03:46.862Z,39.85
2019-03-19T03:06:15.876Z,39.96
2019-03-19T03:08:44.902Z,39.73
2019-03-19T03:11:13.942Z,39.77
2019-03-19T03:13:42.956Z,39.55
2019-03-19T03:16:11.977Z,39.70
2019-03-19T03:18:40.999Z,39.49
2019-03-19T03:21:10.146Z,39.55
2019-03-19T03:23:39.224Z,39.82
2019-03-19T03:26:08.244Z,39.81
2019-03-19T03:28:37.270Z,39.43
2019-03-19T03:31:06.349Z,39.42
2019-03-19T03:33:35.402Z,39.58
2019-03-19T03:36:04.428Z,39.70
2019-03-19T03:38:33.457Z,40.23
2019-03-19T03:41:02.488Z,39.72
2019-03-19T03:43:31.523Z,39.82
2019-03-19T03:46:00.545Z,40.03
2019-03-19T03:48:29.578Z,40.16
2019-03-19T03:50:58.607Z,40.38
2019-03-19T03:53:27.643Z,39.93
2019-03-19T03:55:56.678Z,40.30
2019-03-19T03:58:25.691Z,39.95
2019-03-19T04:00:54.744Z,39.86
2019-03-19T04:03:23.775Z,39.82
2019-03-19T04:05:52.795Z,40.74
2019-03-19T04:08:22.001Z,40.25
2019-03-19T04:10:51.029Z,40.64
2019-03-19T04:13:20.051Z,40.48
2019-03-19T04:15:51.696Z,40.54
2019-03-19T04:18:19.891Z,40.07
2019-03-19T04:20:48.928Z,40.42
2019-03-19T04:23:17.945Z,40.60
2019-03-19T04:25:46.982Z,40.36
2019-03-19T04:28:16.006Z,40.38
2019-03-19T04:30:45.033Z,40.78
2019-03-19T04:33:14.061Z,41.20
2019-03-19T04:35:43.084Z,40.47
2019-03-19T04:38:12.110Z,40.83
2019-03-19T04:40:41.136Z,40.91
2019-03-19T04:43:10.184Z,40.71
2019-03-19T04:45:39.183Z,40.57
2019-03-19T04:48:08.222Z,40.82
2019-03-19T04:50:38.204Z,41.09
2019-03-19T04:53:07.238Z,40.61
2019-03-19T04:55:36.263Z,40.83
2019-03-19T04:58:05.350Z,40.76
2019-03-19T05:00:34.446Z,40.67
2019-03-19T05:03:05.824Z,40.88
2019-03-19T05:05:34.849Z,41.05
2019-03-19T05:08:03.871Z,41.05
2019-03-19T05:10:32.934Z,41.06
2019-03-19T05:13:01.956Z,40.87
2019-03-19T05:15:30.980Z,41.29
2019-03-19T05:18:00.005Z,40.92
2019-03-19T05:20:29.028Z,40.96
2019-03-19T05:22:58.060Z,41.30
2019-03-19T05:25:27.094Z,41.52
2019-03-19T05:27:56.603Z,40.98
2019-03-19T05:30:25.622Z,41.06
2019-03-19T05:32:54.657Z,41.47
2019-03-19T05:35:23.675Z,40.78
2019-03-19T05:37:52.706Z,41.23
2019-03-19T05:40:21.735Z,40.72
2019-03-19T05:42:50.760Z,41.02
2019-03-19T05:45:19.809Z,41.09
2019-03-19T05:47:48.818Z,40.31
2019-03-19T05:50:23.105Z,40.12
2019-03-19T05:52:52.148Z,40.57
2019-03-19T05:55:21.168Z,40.09
2019-03-19T05:57:50.710Z,39.79
2019-03-19T06:00:21.937Z,40.08
2019-03-19T06:02:51.036Z,39.82
2019-03-19T06:05:21.244Z,39.48
2019-03-19T06:07:50.663Z,39.18
2019-03-19T06:10:19.692Z,39.27
2019-03-19T06:12:48.717Z,39.38
2019-03-19T06:15:17.950Z,39.11
2019-03-19T06:17:46.976Z,38.90
2019-03-19T06:20:21.270Z,38.41
2019-03-19T06:22:51.258Z,38.55
2019-03-19T06:25:20.281Z,38.12
2019-03-19T06:27:59.580Z,37.86
2019-03-19T06:30:22.939Z,37.53
2019-03-19T06:32:51.988Z,37.49
2019-03-19T06:35:21.015Z,37.67
2019-03-19T06:37:50.035Z,37.40
2019-03-19T06:40:23.611Z,37.17
2019-03-19T06:42:52.643Z,37.52
2019-03-19T06:45:23.280Z,37.37
2019-03-19T06:47:52.578Z,37.48
2019-03-19T06:50:22.239Z,37.29
2019-03-19T06:52:51.267Z,36.24
2019-03-19T06:55:20.990Z,36.14
2019-03-19T06:57:50.014Z,35.89
2019-03-19T07:00:24.210Z,35.80
2019-03-19T07:02:53.401Z,36.14
2019-03-19T07:05:22.956Z,36.08
2019-03-19T07:07:52.062Z,36.38
2019-03-19T07:10:22.187Z,36.45
2019-03-19T07:12:51.290Z,36.73
2019-03-19T07:15:28.981Z,36.98
2019-03-19T07:17:57.292Z,37.18
2019-03-19T07:20:28.151Z,37.37
2019-03-19T07:22:57.276Z,37.53
2019-03-19T07:25:26.302Z,37.62
2019-03-19T07:27:55.321Z,37.80
2019-03-19T07:30:28.292Z,38.15
2019-03-19T07:32:59.119Z,38.14
2019-03-19T07:35:28.085Z,38.29
2019-03-19T07:37:57.181Z,38.65
2019-03-19T07:40:26.199Z,38.53
2019-03-19T07:43:00.345Z,38.46
2019-03-19T07:45:29.373Z,38.45
2019-03-19T07:47:58.437Z,38.57
2019-03-19T07:50:27.463Z,38.59
2019-03-19T07:52:56.489Z,38.50
2019-03-19T07:55:25.573Z,38.46
2019-03-19T07:57:54.635Z,38.31
2019-03-19T08:00:24.075Z,37.98
2019-03-19T08:02:58.283Z,37.87
2019-03-19T08:05:32.993Z,38.03
2019-03-19T08:07:58.129Z,38.12
2019-03-19T08:10:27.155Z,38.21
2019-03-19T08:12:56.202Z,38.52
2019-03-19T08:15:25.258Z,38.81
2019-03-19T08:17:54.273Z,39.03
2019-03-19T08:20:23.663Z,39.19
2019-03-19T08:22:54.868Z,39.56
2019-03-19T08:25:23.987Z,39.60
2019-03-19T08:27:53.005Z,39.56
2019-03-19T08:30:26.947Z,39.75
2019-03-19T08:32:55.966Z,40.02
2019-03-19T08:35:24.988Z,39.98
2019-03-19T08:37:54.012Z,40.07
2019-03-19T08:40:23.035Z,40.02
2019-03-19T08:42:52.080Z,39.98
2019-03-19T08:45:27.949Z,40.01
2019-03-19T08:47:56.978Z,40.08
2019-03-19T08:50:26.007Z,40.10
2019-03-19T08:52:55.545Z,40.17
2019-03-19T08:55:24.951Z,40.16
2019-03-19T08:57:54.009Z,40.14
2019-03-19T09:00:29.472Z,40.10
2019-03-19T09:02:58.525Z,40.08
2019-03-19T09:05:27.562Z,40.16
2019-03-19T09:07:56.587Z,40.40
2019-03-19T09:10:25.651Z,40.31
2019-03-19T09:12:54.727Z,40.39
2019-03-19T09:15:30.186Z,40.37
2019-03-19T09:17:59.205Z,40.61
2019-03-19T09:20:28.225Z,40.52
2019-03-19T09:22:57.909Z,41.03
2019-03-19T09:25:30.478Z,41.05
2019-03-19T09:27:59.267Z,41.22
2019-03-19T09:30:28.288Z,41.28
